Nearby METAR Reports

 

KSJC - San Jose, California, USA
Distance from station: NE 14km
Updated: 28/06/2022 11:53
Clear
Clear
 Wind from N
Wind: N 7 km/h
Temperature: 17°C
Dew Point: 13°C
Humidity: 77%
Barometer: 1018.3 hPa
Clouds: Clear
Visibility: 16 km
2022/06/28 14:53 KSJC 281453Z 35004KT 10SM CLR 17/13 A3007 RMK AO2 SLP183 T01670128 50005 $
KNUQ - Moffett Nas/Mtn, California, USA
Distance from station: N 14km
Updated: 28/06/2022 08:55
NOT Current

 Wind from calm
Wind: Calm
Temperature: 15°C
Dew Point: 12°C
Humidity: 82%
Barometer: 1017.9 hPa
Visibility: 16 km
2022/06/28 11:55 KNUQ 281155Z AUTO 00000KT 10SM 15/12 A3006 RMK AO2
 
KPAO - Palo Alto, California, USA
Distance from station: NNW 23km
Updated: 28/06/2022 11:47
Clear
Clear
 Wind from varies
Wind: varies 6 km/h
Temperature: 16°C
Dew Point: 12°C
Humidity: 77%
Barometer: 1018.6 hPa
Clouds: Clear
Visibility: 16 km
2022/06/28 14:47 KPAO 281447Z VRB03KT 10SM SKC 16/12 A3008
KRHV - San Jose/Reid, California, USA
Distance from station: ENE 19km
Updated: 28/06/2022 11:50
Clear
Clear
 Wind from calm
Wind: Calm
Temperature: 17°C
Dew Point: 12°C
Humidity: 73%
Barometer: 1018.6 hPa
Clouds: Clear
Visibility: 16 km
2022/06/28 14:50 KRHV 281450Z 00000KT 10SM SKC 17/12 A3008
 
KOAK - Oakland, California, USA
Distance from station: NNW 50km
Updated: 28/06/2022 11:53
Mostly cloudy
Mostly cloudy
 Wind from NW
Wind: NW 6 km/h
Temperature: 15°C
Dew Point: 12°C
Humidity: 82%
Barometer: 1019 hPa
Clouds: Mostly cloudy
Visibility: 16 km
Cloud details: Mostly cloudy 274 m
2022/06/28 14:53 KOAK 281453Z 31003KT 10SM BKN009 15/12 A3009 RMK AO2 SLP188 T01500122 53006
KSQL - San Carlos Airpo, California, USA
Distance from station: NW 34km
Updated: 28/06/2022 11:47
Few Clouds
Few Clouds
 Wind from calm
Wind: Calm
Temperature: 15°C
Dew Point: 12°C
Humidity: 82%
Barometer: 1019 hPa
Clouds: Few Clouds
Visibility: 16 km
Cloud details: Few Clouds 305 m
2022/06/28 14:47 KSQL 281447Z 00000KT 10SM FEW010 15/12 A3009
 
KSFO - San Francisco, California, USA
Distance from station: NW 49km
Updated: 28/06/2022 11:56
Few Clouds
Few Clouds
 Wind from NW
Wind: NW 19 km/h
Temperature: 15°C
Dew Point: 11°C
Humidity: 77%
Barometer: 1018.6 hPa
Clouds: Few Clouds
Visibility: 16 km
Cloud details: Few Clouds 122 m
2022/06/28 14:56 KSFO 281456Z 31010KT 10SM FEW004 15/11 A3008 RMK AO2 SLP185 T01500106 53007
KE16 - San Martin, California, USA
Distance from station: ESE 43km
Updated: 28/06/2022 11:55
Clear
Clear
 Wind from NNW
Wind: NNW 17 km/h
Temperature: 17°C
Dew Point: 12°C
Humidity: 73%
Barometer: 1019 hPa
Clouds: Clear
Visibility: 16 km
2022/06/28 14:55 KE16 281455Z AUTO 34009KT 10SM CLR 17/12 A3009 RMK AO2 PWINO PNO
 
KWVI - Watsonville, California, USA
Distance from station: SSE 44km
Updated: 28/06/2022 11:53
Mist, Mostly cloudy
Mist, Mostly cloudy
 Wind from calm
Wind: Calm
Temperature: 11°C
Dew Point: 11°C
Humidity: 100%
Barometer: 1018.6 hPa
Summary: Mist
Clouds: Mostly cloudy
Visibility: 8 km
Cloud details: Mostly cloudy 91 m
2022/06/28 14:53 KWVI 281453Z AUTO 00000KT 5SM BR BKN003 11/11 A3008 RMK AO2 SLP184 T01110111 51007
KHAF - Half Moon Bay, California, USA
Distance from station: WNW 50km
Updated: 28/06/2022 11:55
Mist, Overcast
Mist, Overcast
 Wind from NNW
Wind: NNW 15 km/h
Temperature: 13°C
Dew Point: 13°C
Humidity: 100%
Barometer: 1019.3 hPa
Summary: Mist
Clouds: Overcast
Visibility: 8 km
Cloud details: Overcast 244 m
2022/06/28 14:55 KHAF 281455Z AUTO 33008KT 5SM BR OVC008 13/13 A3010 RMK AO2
 
KHWD - Hayward, California, USA
Distance from station: N 44km
Updated: 28/06/2022 11:54
Clear
Clear
 Wind from N
Wind: N 7 km/h
Temperature: 16°C
Dew Point: 12°C
Humidity: 77%
Barometer: 1018.6 hPa
Clouds: Clear
Visibility: 16 km
2022/06/28 14:54 KHWD 281454Z AUTO 36004KT 10SM CLR 16/12 A3008 RMK AO2 SLP193 T01560117 53006
KLVK - Livermore, California, USA
Distance from station: NNE 51km
Updated: 28/06/2022 11:53
Clear
Clear
 Wind from NNW
Wind: NNW 7 km/h
Temperature: 18°C
Dew Point: 9°C
Humidity: 56%
Barometer: 1017.6 hPa
Clouds: Clear
Visibility: 16 km
2022/06/28 14:53 KLVK 281453Z 33004KT 10SM CLR 18/09 A3005 RMK AO2 SLP172 T01830094 $